Ponteareas, Spain
Current Conditions -  °F | °C
As of 1:30 PM on Friday 31 Oct 2014 (Local Time) from LEVX Reporting Station
Clear Clear  
Wind Chill: 22°   Ceiling: Unl
Heat Index: 22°   Visibility: 6mi
Dew Point: 14°   Wind: 14mph
Humidity: 60%   Direction: 190°S
Pressure: 30.09"   Gusts: NA
Location:  42.18°N, 8.5°W
Report Text: LEVX 311230Z 19012KT 160V230 CAVOK 22/14 Q1019 NOSIG
Loading
Personal Weather Stations






























Interactive Weather Map
Tropical Storm Tracking
New forecast layout! Learn more

10-Day Weather Forecast

Advertisements
Track Severe Weather on mobile